createdAt,value
2019-02-02T00:00:54.989Z,11.30
2019-02-02T00:03:25.302Z,10.70
2019-02-02T00:05:55.511Z,10.13
2019-02-02T00:08:25.688Z,11.03
2019-02-02T00:10:56.004Z,11.30
2019-02-02T00:13:26.258Z,11.10
2019-02-02T00:15:56.471Z,10.20
2019-02-02T00:18:26.776Z,11.40
2019-02-02T00:20:56.982Z,10.93
2019-02-02T00:23:27.305Z,12.40
2019-02-02T00:25:57.491Z,12.47
2019-02-02T00:28:27.999Z,11.77
2019-02-02T00:30:58.244Z,11.30
2019-02-02T00:33:28.438Z,10.43
2019-02-02T00:35:58.704Z,10.90
2019-02-02T00:38:28.980Z,10.80
2019-02-02T00:40:59.221Z,10.53
2019-02-02T00:43:29.428Z,10.57
2019-02-02T00:45:59.678Z,10.33
2019-02-02T00:48:29.973Z,10.97
2019-02-02T00:51:00.249Z,9.80
2019-02-02T00:53:30.399Z,10.63
2019-02-02T00:56:00.664Z,9.60
2019-02-02T00:58:31.184Z,9.93
2019-02-02T01:01:01.402Z,10.17
2019-02-02T01:03:31.819Z,10.73
2019-02-02T01:06:04.859Z,9.53
2019-02-02T01:08:33.851Z,10.10
2019-02-02T01:11:04.202Z,10.40
2019-02-02T01:13:34.490Z,9.67
2019-02-02T01:16:05.707Z,10.30
2019-02-02T01:18:36.072Z,9.60
2019-02-02T01:21:06.438Z,10.73
2019-02-02T01:23:36.756Z,10.37
2019-02-02T01:26:06.953Z,10.60
2019-02-02T01:28:37.239Z,9.90
2019-02-02T01:31:07.384Z,10.00
2019-02-02T01:33:37.942Z,10.23
2019-02-02T01:36:08.277Z,9.87
2019-02-02T01:38:38.511Z,10.60
2019-02-02T01:41:08.665Z,10.80
2019-02-02T01:43:38.976Z,10.23
2019-02-02T01:46:09.204Z,10.20
2019-02-02T01:48:39.398Z,11.13
2019-02-02T01:51:09.958Z,10.37
2019-02-02T01:53:40.195Z,10.87
2019-02-02T01:56:11.128Z,10.83
2019-02-02T01:58:41.337Z,10.00
2019-02-02T02:01:11.653Z,10.93
2019-02-02T02:03:41.926Z,11.27
2019-02-02T02:06:12.152Z,10.70
2019-02-02T02:08:42.419Z,9.97
2019-02-02T02:11:12.766Z,10.73
2019-02-02T02:13:43.021Z,10.73
2019-02-02T02:16:13.230Z,10.13
2019-02-02T02:18:43.404Z,10.63
2019-02-02T02:21:13.647Z,10.20
2019-02-02T02:23:43.888Z,11.33
2019-02-02T02:26:14.059Z,11.33
2019-02-02T02:28:44.316Z,10.40
2019-02-02T02:31:14.607Z,12.00
2019-02-02T02:33:44.864Z,11.47
2019-02-02T02:36:15.167Z,10.27
2019-02-02T02:38:45.431Z,11.80
2019-02-02T02:41:15.692Z,11.93
2019-02-02T02:43:45.904Z,11.83
2019-02-02T02:46:16.198Z,12.07
2019-02-02T02:48:46.426Z,11.77
2019-02-02T02:51:16.965Z,11.50
2019-02-02T02:53:47.146Z,11.70
2019-02-02T02:56:17.502Z,12.23
2019-02-02T02:58:47.666Z,11.37
2019-02-02T03:01:17.951Z,10.77
2019-02-02T03:03:48.075Z,11.27
2019-02-02T03:06:18.265Z,10.97
2019-02-02T03:08:48.573Z,10.37
2019-02-02T03:11:18.784Z,10.40
2019-02-02T03:13:49.062Z,11.33
2019-02-02T03:16:19.395Z,12.23
2019-02-02T03:18:49.718Z,11.07
2019-02-02T03:21:19.967Z,11.23
2019-02-02T03:23:50.401Z,10.33
2019-02-02T03:26:20.660Z,10.83
2019-02-02T03:28:53.549Z,10.60
2019-02-02T03:31:22.852Z,11.07
2019-02-02T03:33:53.211Z,11.47
2019-02-02T03:36:23.756Z,11.27
2019-02-02T03:38:54.085Z,12.13
2019-02-02T03:41:24.372Z,11.10
2019-02-02T03:43:54.631Z,11.37
2019-02-02T03:46:24.827Z,11.37
2019-02-02T03:48:55.006Z,11.30
2019-02-02T03:51:25.384Z,11.07
2019-02-02T03:54:07.916Z,11.67
2019-02-02T03:56:27.773Z,11.47
2019-02-02T03:59:05.943Z,12.00
2019-02-02T04:01:30.307Z,11.03
2019-02-02T04:04:00.565Z,10.27
2019-02-02T04:06:30.755Z,11.87
2019-02-02T04:09:00.962Z,12.07
2019-02-02T04:11:32.951Z,11.20
2019-02-02T04:14:04.242Z,12.20
2019-02-02T04:16:34.691Z,12.27
2019-02-02T04:19:05.283Z,11.73
2019-02-02T04:21:36.297Z,11.53
2019-02-02T04:24:06.707Z,12.33
2019-02-02T04:26:36.916Z,12.40
2019-02-02T04:29:17.341Z,12.07
2019-02-02T04:31:39.119Z,12.27
2019-02-02T04:34:09.310Z,12.40
2019-02-02T04:36:40.756Z,12.20
2019-02-02T04:39:11.008Z,12.23
2019-02-02T04:41:41.361Z,11.43
2019-02-02T04:44:11.506Z,11.97
2019-02-02T04:46:41.854Z,12.60
2019-02-02T04:49:12.091Z,13.37
2019-02-02T04:51:42.369Z,12.80
2019-02-02T04:54:12.586Z,12.23
2019-02-02T04:56:42.821Z,12.87
2019-02-02T04:59:13.063Z,12.80
2019-02-02T05:01:43.283Z,12.70
2019-02-02T05:04:13.534Z,12.17
2019-02-02T05:06:43.762Z,13.47
2019-02-02T05:09:14.007Z,13.17
2019-02-02T05:11:44.127Z,12.50
2019-02-02T05:14:14.265Z,13.03
2019-02-02T05:16:44.512Z,12.37
2019-02-02T05:19:14.718Z,12.93
2019-02-02T05:21:44.958Z,12.60
2019-02-02T05:24:15.163Z,12.93
2019-02-02T05:26:45.280Z,13.00
2019-02-02T05:29:15.482Z,14.53
2019-02-02T05:31:45.713Z,12.73
2019-02-02T05:34:15.947Z,15.33
2019-02-02T05:36:46.199Z,13.50
2019-02-02T05:39:16.352Z,12.93
2019-02-02T05:41:46.574Z,13.83
2019-02-02T05:44:16.877Z,14.13
2019-02-02T05:46:47.016Z,14.03
2019-02-02T05:49:17.142Z,13.47
2019-02-02T05:51:47.408Z,13.10
2019-02-02T05:54:17.602Z,14.83
2019-02-02T05:56:47.799Z,13.40
2019-02-02T05:59:18.052Z,14.30
2019-02-02T06:01:48.287Z,13.83
2019-02-02T06:04:18.507Z,13.77
2019-02-02T06:06:48.611Z,14.37
2019-02-02T06:09:18.800Z,13.67
2019-02-02T06:11:48.866Z,14.10
2019-02-02T06:14:19.079Z,15.00
2019-02-02T06:16:49.392Z,14.70
2019-02-02T06:19:19.499Z,14.07
2019-02-02T06:21:49.706Z,14.97
2019-02-02T06:24:19.845Z,15.23
2019-02-02T06:26:49.982Z,14.50
2019-02-02T06:29:20.224Z,15.13
2019-02-02T06:31:50.306Z,15.20
2019-02-02T06:34:20.563Z,15.07
2019-02-02T06:36:50.770Z,16.17
2019-02-02T06:39:20.947Z,15.20
2019-02-02T06:41:51.335Z,15.63
2019-02-02T06:44:21.382Z,14.87
2019-02-02T06:46:51.597Z,15.23
2019-02-02T06:49:22.099Z,14.27
2019-02-02T06:51:52.276Z,14.63
2019-02-02T06:54:22.513Z,14.53
2019-02-02T06:56:52.773Z,14.87
2019-02-02T06:59:22.967Z,14.73
2019-02-02T07:01:53.197Z,15.93
2019-02-02T07:04:23.555Z,14.87
2019-02-02T07:06:53.754Z,15.03
2019-02-02T07:09:24.127Z,15.70
2019-02-02T07:11:54.291Z,15.60
2019-02-02T07:14:24.412Z,16.37
2019-02-02T07:16:54.676Z,16.63
2019-02-02T07:19:24.867Z,16.93
2019-02-02T07:21:55.103Z,16.47
2019-02-02T07:24:25.228Z,16.07
2019-02-02T07:26:55.700Z,14.70
2019-02-02T07:29:25.810Z,16.83
2019-02-02T07:31:56.007Z,15.53
2019-02-02T07:34:26.224Z,17.30
2019-02-02T07:36:56.402Z,16.50
2019-02-02T07:39:26.594Z,15.60
2019-02-02T07:41:56.707Z,16.53
2019-02-02T07:44:26.872Z,15.50
2019-02-02T07:46:56.938Z,15.10
2019-02-02T07:49:27.108Z,16.47
2019-02-02T07:51:57.507Z,16.60
2019-02-02T07:54:27.694Z,16.07
2019-02-02T07:56:57.848Z,15.97
2019-02-02T07:59:28.078Z,16.43
2019-02-02T08:01:58.594Z,16.97
2019-02-02T08:04:28.627Z,15.87
2019-02-02T08:06:58.762Z,16.23
2019-02-02T08:09:28.943Z,17.63
2019-02-02T08:11:59.082Z,17.90
2019-02-02T08:14:29.193Z,17.43
2019-02-02T08:16:59.752Z,17.37
2019-02-02T08:19:29.958Z,17.27
2019-02-02T08:22:00.218Z,17.90
2019-02-02T08:24:30.418Z,16.93
2019-02-02T08:27:00.539Z,18.10
2019-02-02T08:29:30.747Z,17.73
2019-02-02T08:32:00.987Z,17.63
2019-02-02T08:34:31.075Z,17.37
2019-02-02T08:37:01.342Z,17.83
2019-02-02T08:39:31.599Z,19.90
2019-02-02T08:42:01.727Z,19.73
2019-02-02T08:44:31.959Z,19.80
2019-02-02T08:47:02.083Z,19.67
2019-02-02T08:49:32.231Z,20.13
2019-02-02T08:52:02.550Z,19.07
2019-02-02T08:54:32.756Z,20.97
2019-02-02T08:57:03.057Z,19.50
2019-02-02T08:59:33.284Z,19.93
2019-02-02T09:02:03.460Z,19.07
2019-02-02T09:04:33.998Z,20.10
2019-02-02T09:07:05.162Z,20.43
2019-02-02T09:09:35.705Z,20.50
2019-02-02T09:12:05.959Z,20.23
2019-02-02T09:14:36.170Z,20.87
2019-02-02T09:17:06.386Z,21.50
2019-02-02T09:19:36.594Z,20.77
2019-02-02T09:22:06.763Z,21.13
2019-02-02T09:24:36.974Z,20.03
2019-02-02T09:27:07.215Z,22.17
2019-02-02T09:29:37.695Z,20.57
2019-02-02T09:32:08.189Z,20.67
2019-02-02T09:34:38.384Z,21.53
2019-02-02T09:37:08.590Z,21.30
2019-02-02T09:39:38.805Z,20.87
2019-02-02T09:42:09.029Z,21.57
2019-02-02T09:44:39.267Z,20.87
2019-02-02T09:47:09.650Z,20.20
2019-02-02T09:49:40.102Z,19.43
2019-02-02T09:52:10.315Z,20.70
2019-02-02T09:54:40.488Z,19.53
2019-02-02T09:57:10.698Z,18.97
2019-02-02T09:59:40.863Z,19.80
2019-02-02T10:02:11.095Z,20.60
2019-02-02T10:04:41.309Z,20.63
2019-02-02T10:07:11.454Z,22.77
2019-02-02T10:09:41.662Z,21.73
2019-02-02T10:12:11.771Z,22.97
2019-02-02T10:14:42.023Z,22.60
2019-02-02T10:17:12.319Z,24.07
2019-02-02T10:19:42.435Z,23.77
2019-02-02T10:22:12.605Z,22.83
2019-02-02T10:24:43.105Z,24.83
2019-02-02T10:27:13.318Z,23.40
2019-02-02T10:29:43.494Z,23.57
2019-02-02T10:32:13.723Z,23.30
2019-02-02T10:34:43.890Z,23.20
2019-02-02T10:37:14.045Z,23.33
2019-02-02T10:39:44.187Z,22.00
2019-02-02T10:42:14.330Z,22.73
2019-02-02T10:44:44.495Z,22.53
2019-02-02T10:47:14.597Z,21.43
2019-02-02T10:49:44.722Z,21.27
2019-02-02T10:52:14.819Z,21.60
2019-02-02T10:54:44.927Z,21.17
2019-02-02T10:57:15.449Z,19.80
2019-02-02T10:59:45.675Z,22.13
2019-02-02T11:02:17.859Z,19.00
2019-02-02T11:04:48.149Z,20.93
2019-02-02T11:07:18.428Z,21.67
2019-02-02T11:09:48.736Z,20.47
2019-02-02T11:12:18.930Z,19.90
2019-02-02T11:14:49.117Z,20.33
2019-02-02T11:17:19.627Z,18.53
2019-02-02T11:19:49.968Z,17.97
2019-02-02T11:22:20.245Z,16.87
2019-02-02T11:24:50.478Z,16.80
2019-02-02T11:27:20.903Z,18.07
2019-02-02T11:29:51.180Z,18.63
2019-02-02T11:32:21.420Z,17.93
2019-02-02T11:34:51.624Z,19.20
2019-02-02T11:37:21.795Z,18.73
2019-02-02T11:39:51.941Z,18.57
2019-02-02T11:42:22.110Z,19.10
2019-02-02T11:44:52.359Z,17.63
2019-02-02T11:47:22.471Z,18.60
2019-02-02T11:49:52.841Z,20.00
2019-02-02T11:52:23.407Z,19.57
2019-02-02T11:54:53.654Z,19.00
2019-02-02T11:57:23.779Z,20.83
2019-02-02T11:59:54.011Z,21.50
2019-02-02T12:02:24.160Z,20.17
2019-02-02T12:04:54.370Z,21.50
2019-02-02T12:07:24.591Z,22.63
2019-02-02T12:09:54.709Z,20.27
2019-02-02T12:12:24.938Z,21.07
2019-02-02T12:14:56.991Z,22.10
2019-02-02T12:17:27.281Z,20.73
2019-02-02T12:19:57.519Z,21.63
2019-02-02T12:22:28.668Z,21.97
2019-02-02T12:25:01.681Z,22.63
2019-02-02T12:27:31.120Z,22.77
2019-02-02T12:30:01.607Z,22.57
2019-02-02T12:32:33.499Z,23.20
2019-02-02T12:35:04.725Z,23.40
2019-02-02T12:37:35.065Z,23.80
2019-02-02T12:40:06.508Z,23.90
2019-02-02T12:42:36.675Z,24.40
2019-02-02T12:45:09.694Z,23.93
2019-02-02T12:47:39.926Z,25.43
2019-02-02T12:50:10.995Z,26.33
2019-02-02T12:52:41.139Z,24.33
2019-02-02T12:55:11.298Z,24.37
2019-02-02T12:57:41.409Z,25.93
2019-02-02T13:00:14.684Z,25.10
2019-02-02T13:02:45.242Z,26.40
2019-02-02T13:05:16.686Z,25.83
2019-02-02T13:07:46.998Z,31.03
2019-02-02T13:10:24.426Z,29.67
2019-02-02T13:12:53.959Z,27.83
2019-02-02T13:15:24.135Z,29.07
2019-02-02T13:17:54.389Z,28.37
2019-02-02T13:20:24.806Z,27.80
2019-02-02T13:22:55.304Z,28.50
2019-02-02T13:25:25.567Z,29.50
2019-02-02T13:27:56.240Z,28.83
2019-02-02T13:30:28.877Z,28.40
2019-02-02T13:32:59.050Z,28.93
2019-02-02T13:35:30.063Z,26.73
2019-02-02T13:38:00.305Z,28.40
2019-02-02T13:40:30.736Z,29.30
2019-02-02T13:43:00.934Z,28.10
2019-02-02T13:45:31.561Z,28.30
2019-02-02T13:48:01.697Z,27.07
2019-02-02T13:50:31.971Z,28.63
2019-02-02T13:53:02.280Z,29.30
2019-02-02T13:55:32.559Z,28.77
2019-02-02T13:58:02.857Z,29.03
2019-02-02T14:00:33.170Z,26.37
2019-02-02T14:03:03.955Z,28.20
2019-02-02T14:05:34.489Z,26.67
2019-02-02T14:08:05.121Z,25.97
2019-02-02T14:10:35.758Z,29.53
2019-02-02T14:13:05.978Z,29.90
2019-02-02T14:15:39.196Z,30.57
2019-02-02T14:18:08.256Z,27.67
2019-02-02T14:20:38.406Z,28.23
2019-02-02T14:23:08.607Z,28.27
2019-02-02T14:25:38.799Z,29.90
2019-02-02T14:28:09.104Z,27.80
2019-02-02T14:30:39.394Z,28.27
2019-02-02T14:33:14.168Z,28.27
2019-02-02T14:35:41.663Z,28.77
2019-02-02T14:38:11.936Z,28.73
2019-02-02T14:40:42.104Z,27.40
2019-02-02T14:43:12.598Z,27.43
2019-02-02T14:45:42.804Z,29.77
2019-02-02T14:48:13.041Z,34.17
2019-02-02T14:50:43.258Z,32.30
2019-02-02T14:53:16.418Z,30.23
2019-02-02T14:55:46.017Z,29.40
2019-02-02T14:58:16.431Z,29.00
2019-02-02T15:00:46.666Z,27.00
2019-02-02T15:03:25.542Z,29.93
2019-02-02T15:05:48.529Z,32.47
2019-02-02T15:08:18.811Z,30.10
2019-02-02T15:10:48.999Z,29.63
2019-02-02T15:13:19.251Z,27.67
2019-02-02T15:15:49.430Z,29.97
2019-02-02T15:18:19.602Z,29.27
2019-02-02T15:20:49.910Z,30.87
2019-02-02T15:23:20.034Z,30.43
2019-02-02T15:25:50.166Z,31.03
2019-02-02T15:28:20.291Z,30.97
2019-02-02T15:30:50.813Z,27.33
2019-02-02T15:33:21.023Z,30.77
2019-02-02T15:35:51.267Z,30.90
2019-02-02T15:38:21.445Z,31.90
2019-02-02T15:40:58.838Z,30.83
2019-02-02T15:43:23.491Z,30.67
2019-02-02T15:45:53.711Z,30.53
2019-02-02T15:48:24.489Z,31.23
2019-02-02T15:50:54.714Z,31.67
2019-02-02T15:53:24.888Z,31.93
2019-02-02T15:55:55.183Z,30.27
2019-02-02T15:58:25.324Z,32.03
2019-02-02T16:00:55.581Z,31.90
2019-02-02T16:03:26.459Z,32.83
2019-02-02T16:05:56.671Z,31.27
2019-02-02T16:08:26.847Z,30.67
2019-02-02T16:10:56.990Z,29.93
2019-02-02T16:13:27.167Z,32.70
2019-02-02T16:15:57.459Z,31.47
2019-02-02T16:18:27.931Z,31.47
2019-02-02T16:20:58.082Z,31.37
2019-02-02T16:23:28.631Z,34.10
2019-02-02T16:25:58.888Z,31.43
2019-02-02T16:28:29.054Z,32.80
2019-02-02T16:30:59.426Z,33.67
2019-02-02T16:33:33.325Z,31.83
2019-02-02T16:36:03.374Z,31.63
2019-02-02T16:38:33.602Z,31.27
2019-02-02T16:41:03.857Z,32.17
2019-02-02T16:43:34.421Z,30.43
2019-02-02T16:46:06.203Z,30.77
2019-02-02T16:48:36.448Z,30.40
2019-02-02T16:51:06.763Z,34.83
2019-02-02T16:53:36.913Z,30.20
2019-02-02T16:56:09.087Z,28.93
2019-02-02T16:58:39.367Z,30.60
2019-02-02T17:01:09.634Z,30.13
2019-02-02T17:03:39.917Z,29.40
2019-02-02T17:06:11.474Z,31.00
2019-02-02T17:08:41.755Z,30.33
2019-02-02T17:11:11.931Z,31.20
2019-02-02T17:13:42.088Z,29.83
2019-02-02T17:16:12.719Z,30.53
2019-02-02T17:18:42.890Z,29.17
2019-02-02T17:21:13.119Z,28.63
2019-02-02T17:23:43.275Z,29.57
2019-02-02T17:26:13.536Z,29.07
2019-02-02T17:28:43.930Z,28.53
2019-02-02T17:31:14.347Z,29.07
2019-02-02T17:33:44.559Z,29.97
2019-02-02T17:36:14.862Z,29.37
2019-02-02T17:38:45.408Z,29.27
2019-02-02T17:41:15.659Z,30.53
2019-02-02T17:43:45.939Z,29.67
2019-02-02T17:46:16.107Z,29.17
2019-02-02T17:48:46.732Z,30.37
2019-02-02T17:51:16.962Z,31.23
2019-02-02T17:53:47.111Z,31.40
2019-02-02T17:56:17.393Z,31.17
2019-02-02T17:58:47.599Z,30.37
2019-02-02T18:01:17.882Z,30.33
2019-02-02T18:03:48.146Z,31.03
2019-02-02T18:06:18.419Z,32.20
2019-02-02T18:08:48.531Z,30.63
2019-02-02T18:11:18.699Z,31.03
2019-02-02T18:13:48.958Z,30.73
2019-02-02T18:16:19.255Z,31.37
2019-02-02T18:18:49.462Z,30.10
2019-02-02T18:21:19.746Z,33.17
2019-02-02T18:23:49.882Z,32.50
2019-02-02T18:26:20.031Z,31.23
2019-02-02T18:28:53.828Z,32.53
2019-02-02T18:31:23.090Z,30.60
2019-02-02T18:33:53.304Z,31.50
2019-02-02T18:36:23.543Z,30.20
2019-02-02T18:38:53.830Z,31.03
2019-02-02T18:41:24.042Z,31.83
2019-02-02T18:43:54.174Z,30.93
2019-02-02T18:46:25.385Z,30.90
2019-02-02T18:48:55.494Z,32.27
2019-02-02T18:51:25.999Z,29.80
2019-02-02T18:53:56.182Z,32.00
2019-02-02T18:56:26.298Z,31.93
2019-02-02T18:58:56.580Z,31.60
2019-02-02T19:01:26.793Z,31.67
2019-02-02T19:03:57.013Z,31.17
2019-02-02T19:06:27.499Z,30.47
2019-02-02T19:08:58.790Z,31.10
2019-02-02T19:11:28.906Z,30.10
2019-02-02T19:13:59.150Z,28.93
2019-02-02T19:16:29.351Z,29.67
2019-02-02T19:18:59.920Z,30.80
2019-02-02T19:21:30.428Z,28.93
2019-02-02T19:24:00.664Z,28.90
2019-02-02T19:26:30.853Z,28.30
2019-02-02T19:29:01.031Z,28.23
2019-02-02T19:31:31.066Z,26.30
2019-02-02T19:34:01.349Z,26.03
2019-02-02T19:36:31.491Z,27.37
2019-02-02T19:39:01.775Z,25.63
2019-02-02T19:41:33.631Z,25.53
2019-02-02T19:44:03.927Z,26.47
2019-02-02T19:46:34.140Z,25.57
2019-02-02T19:49:04.660Z,24.73
2019-02-02T19:51:35.026Z,23.90
2019-02-02T19:54:07.550Z,25.80
2019-02-02T19:56:37.551Z,24.77
2019-02-02T19:59:07.666Z,26.03
2019-02-02T20:01:37.846Z,25.20
2019-02-02T20:04:08.101Z,25.53
2019-02-02T20:06:38.297Z,26.57
2019-02-02T20:09:09.563Z,25.80
2019-02-02T20:11:39.838Z,26.13
2019-02-02T20:14:10.129Z,25.10
2019-02-02T20:16:40.357Z,25.50
2019-02-02T20:19:10.540Z,25.80
2019-02-02T20:21:40.767Z,23.93
2019-02-02T20:24:10.973Z,25.27
2019-02-02T20:26:41.187Z,24.60
2019-02-02T20:29:11.331Z,23.37
2019-02-02T20:31:41.510Z,23.93
2019-02-02T20:34:11.745Z,23.53
2019-02-02T20:36:41.928Z,26.17
2019-02-02T20:39:12.394Z,24.27
2019-02-02T20:41:42.899Z,23.60
2019-02-02T20:44:13.137Z,24.03
2019-02-02T20:46:43.199Z,23.53
2019-02-02T20:49:13.525Z,23.27
2019-02-02T20:51:43.770Z,22.40
2019-02-02T20:54:14.230Z,22.83
2019-02-02T20:56:44.942Z,23.23
2019-02-02T20:59:15.069Z,24.53
2019-02-02T21:01:45.447Z,25.13
2019-02-02T21:04:15.574Z,25.37
2019-02-02T21:06:45.758Z,27.30
2019-02-02T21:09:16.167Z,25.00
2019-02-02T21:11:56.590Z,26.73
2019-02-02T21:14:18.335Z,26.23
2019-02-02T21:16:48.872Z,27.73
2019-02-02T21:19:19.353Z,27.43
2019-02-02T21:21:49.536Z,27.30
2019-02-02T21:24:19.834Z,27.17
2019-02-02T21:26:50.134Z,27.43
2019-02-02T21:29:20.275Z,28.37
2019-02-02T21:31:50.844Z,27.63
2019-02-02T21:34:21.015Z,27.70
2019-02-02T21:36:51.148Z,27.70
2019-02-02T21:39:21.293Z,27.63
2019-02-02T21:41:51.713Z,30.27
2019-02-02T21:44:22.258Z,29.83
2019-02-02T21:46:52.360Z,28.97
2019-02-02T21:49:22.502Z,29.50
2019-02-02T21:51:52.638Z,29.00
2019-02-02T21:54:25.711Z,30.27
2019-02-02T21:56:54.615Z,29.33
2019-02-02T21:59:24.717Z,27.77
2019-02-02T22:01:55.939Z,28.43
2019-02-02T22:04:26.076Z,28.60
2019-02-02T22:06:56.798Z,27.87
2019-02-02T22:09:27.092Z,26.77
2019-02-02T22:11:57.380Z,27.73
2019-02-02T22:14:27.651Z,27.90
2019-02-02T22:16:57.778Z,28.00
2019-02-02T22:19:28.022Z,27.67
2019-02-02T22:21:58.217Z,27.00
2019-02-02T22:24:28.356Z,28.50
2019-02-02T22:26:58.574Z,29.50
2019-02-02T22:29:28.989Z,30.03
2019-02-02T22:31:59.107Z,31.20
2019-02-02T22:34:29.299Z,30.23
2019-02-02T22:36:59.550Z,31.43
2019-02-02T22:39:29.815Z,29.97
2019-02-02T22:42:00.147Z,28.57
2019-02-02T22:44:30.387Z,29.67
2019-02-02T22:47:00.677Z,30.43
2019-02-02T22:49:30.940Z,27.97
2019-02-02T22:52:03.156Z,29.40
2019-02-02T22:54:33.472Z,29.33
2019-02-02T22:57:03.703Z,29.97
2019-02-02T22:59:34.251Z,30.87
2019-02-02T23:02:10.526Z,31.77
2019-02-02T23:05:21.338Z,30.27
2019-02-02T23:08:14.341Z,29.13
2019-02-02T23:11:22.207Z,29.27
2019-02-02T23:14:48.347Z,29.50
2019-02-02T23:17:18.834Z,29.63
2019-02-02T23:19:49.112Z,30.20
2019-02-02T23:22:19.865Z,31.53
2019-02-02T23:24:50.071Z,28.47
2019-02-02T23:27:20.676Z,31.53
2019-02-02T23:29:51.296Z,30.60
2019-02-02T23:32:21.546Z,28.67
2019-02-02T23:34:52.008Z,30.00
2019-02-02T23:37:22.370Z,29.57
2019-02-02T23:39:52.543Z,28.60
2019-02-02T23:42:22.663Z,29.50
2019-02-02T23:44:52.945Z,30.40
2019-02-02T23:47:23.500Z,29.37
2019-02-02T23:49:53.759Z,30.27
2019-02-02T23:52:23.954Z,30.53
2019-02-02T23:54:54.291Z,29.07
2019-02-02T23:57:24.564Z,30.30
2019-02-02T23:59:55.104Z,30.60
